createdAt,value
2022-12-17T00:00:27.923Z,-3.51
2022-12-17T00:01:25.290Z,-3.46
2022-12-17T00:02:25.430Z,-3.41
2022-12-17T00:03:25.426Z,-3.33
2022-12-17T00:04:25.338Z,-3.30
2022-12-17T00:05:25.371Z,-3.33
2022-12-17T00:06:25.388Z,-3.33
2022-12-17T00:07:25.418Z,-3.37
2022-12-17T00:08:25.448Z,-3.27
2022-12-17T00:09:25.478Z,-3.22
2022-12-17T00:10:25.574Z,-3.20
2022-12-17T00:11:25.530Z,-3.20
2022-12-17T00:12:25.577Z,-3.17
2022-12-17T00:13:25.590Z,-3.22
2022-12-17T00:14:25.616Z,-3.19
2022-12-17T00:15:25.637Z,-3.20
2022-12-17T00:16:25.749Z,-3.26
2022-12-17T00:17:25.690Z,-3.29
2022-12-17T00:18:25.719Z,-3.27
2022-12-17T00:19:25.759Z,-3.27
2022-12-17T00:20:25.780Z,-3.29
2022-12-17T00:21:25.810Z,-3.32
2022-12-17T00:22:25.862Z,-3.38
2022-12-17T00:23:25.891Z,-3.37
2022-12-17T00:24:25.930Z,-3.37
2022-12-17T00:25:25.951Z,-3.40
2022-12-17T00:26:25.981Z,-3.44
2022-12-17T00:27:26.012Z,-3.48
2022-12-17T00:28:26.030Z,-3.46
2022-12-17T00:29:26.061Z,-3.48
2022-12-17T00:30:26.123Z,-3.50
2022-12-17T00:31:26.210Z,-3.50
2022-12-17T00:32:26.191Z,-3.47
2022-12-17T00:33:26.190Z,-3.47
2022-12-17T00:34:26.209Z,-3.51
2022-12-17T00:35:26.250Z,-3.55
2022-12-17T00:36:26.271Z,-3.55
2022-12-17T00:37:26.291Z,-3.55
2022-12-17T00:38:26.300Z,-3.55
2022-12-17T00:39:26.452Z,-3.56
2022-12-17T00:40:26.382Z,-3.61
2022-12-17T00:41:26.421Z,-3.62
2022-12-17T00:42:26.441Z,-3.71
2022-12-17T00:43:26.472Z,-3.75
2022-12-17T00:44:27.461Z,-3.81
2022-12-17T00:45:26.561Z,-3.81
2022-12-17T00:46:26.625Z,-3.83
2022-12-17T00:47:26.571Z,-3.90
2022-12-17T00:48:26.593Z,-3.96
2022-12-17T00:49:26.612Z,-4.01
2022-12-17T00:50:26.625Z,-4.04
2022-12-17T00:51:26.644Z,-4.06
2022-12-17T00:52:26.654Z,-4.06
2022-12-17T00:53:26.672Z,-4.05
2022-12-17T00:54:26.712Z,-4.06
2022-12-17T00:55:26.715Z,-4.06
2022-12-17T00:56:26.734Z,-4.02
2022-12-17T00:57:26.739Z,-4.04
2022-12-17T00:58:26.742Z,-4.06
2022-12-17T00:59:26.775Z,-4.13
2022-12-17T01:00:26.963Z,-4.09
2022-12-17T01:01:26.997Z,-4.16
2022-12-17T01:02:27.169Z,-4.14
2022-12-17T01:03:26.917Z,-4.14
2022-12-17T01:04:26.955Z,-4.20
2022-12-17T01:05:26.963Z,-4.31
2022-12-17T01:06:27.012Z,-4.35
2022-12-17T01:07:27.032Z,-4.40
2022-12-17T01:08:27.048Z,-4.47
2022-12-17T01:09:27.063Z,-4.45
2022-12-17T01:10:27.115Z,-4.47
2022-12-17T01:11:27.175Z,-4.47
2022-12-17T01:12:27.194Z,-4.47
2022-12-17T01:13:27.223Z,-4.52
2022-12-17T01:14:27.235Z,-4.58
2022-12-17T01:15:27.253Z,-4.59
2022-12-17T01:16:27.433Z,-4.62
2022-12-17T01:17:27.366Z,-4.62
2022-12-17T01:18:27.392Z,-4.62
2022-12-17T01:19:27.429Z,-4.74
2022-12-17T01:20:27.445Z,-4.81
2022-12-17T01:21:27.466Z,-4.88
2022-12-17T01:22:27.513Z,-4.88
2022-12-17T01:23:27.536Z,-4.91
2022-12-17T01:24:27.555Z,-4.91
2022-12-17T01:25:27.586Z,-4.87
2022-12-17T01:26:27.617Z,-4.84
2022-12-17T01:27:27.645Z,-4.79
2022-12-17T01:28:27.685Z,-4.69
2022-12-17T01:29:27.725Z,-4.70
2022-12-17T01:30:27.752Z,-4.71
2022-12-17T01:31:32.922Z,-4.70
2022-12-17T01:32:27.793Z,-4.70
2022-12-17T01:33:27.825Z,-4.70
2022-12-17T01:34:27.865Z,-4.71
2022-12-17T01:35:27.895Z,-4.69
2022-12-17T01:36:27.926Z,-4.70
2022-12-17T01:37:27.955Z,-4.70
2022-12-17T01:38:27.975Z,-4.77
2022-12-17T01:39:27.995Z,-4.81
2022-12-17T01:40:28.036Z,-4.88
2022-12-17T01:41:28.056Z,-4.88
2022-12-17T01:42:28.097Z,-4.90
2022-12-17T01:43:28.136Z,-4.91
2022-12-17T01:44:28.176Z,-4.92
2022-12-17T01:45:28.241Z,-4.91
2022-12-17T01:46:28.195Z,-4.95
2022-12-17T01:47:28.249Z,-4.94
2022-12-17T01:48:28.267Z,-5.00
2022-12-17T01:49:28.297Z,-5.05
2022-12-17T01:50:28.306Z,-5.10
2022-12-17T01:51:28.326Z,-5.09
2022-12-17T01:52:28.367Z,-5.06
2022-12-17T01:53:28.416Z,-5.05
2022-12-17T01:54:28.440Z,-5.06
2022-12-17T01:55:28.467Z,-4.98
2022-12-17T01:56:28.503Z,-4.97
2022-12-17T01:57:28.508Z,-4.92
2022-12-17T01:58:28.547Z,-4.88
2022-12-17T01:59:28.576Z,-4.84
2022-12-17T02:00:28.699Z,-4.87
2022-12-17T02:01:28.800Z,-4.90
2022-12-17T02:02:28.913Z,-4.88
2022-12-17T02:03:28.869Z,-4.90
2022-12-17T02:04:28.839Z,-4.92
2022-12-17T02:05:28.857Z,-4.97
2022-12-17T02:06:28.880Z,-4.97
2022-12-17T02:07:28.953Z,-4.97
2022-12-17T02:08:28.898Z,-4.97
2022-12-17T02:09:28.958Z,-4.97
2022-12-17T02:10:28.997Z,-4.95
2022-12-17T02:11:29.025Z,-4.92
2022-12-17T02:12:29.069Z,-4.91
2022-12-17T02:13:29.100Z,-4.97
2022-12-17T02:14:29.118Z,-4.98
2022-12-17T02:15:29.140Z,-5.00
2022-12-17T02:16:29.210Z,-5.01
2022-12-17T02:17:29.210Z,-5.01
2022-12-17T02:18:29.230Z,-4.98
2022-12-17T02:19:29.268Z,-4.95
2022-12-17T02:20:29.289Z,-5.02
2022-12-17T02:21:29.329Z,-5.05
2022-12-17T02:22:29.350Z,-5.10
2022-12-17T02:23:29.388Z,-5.12
2022-12-17T02:24:29.409Z,-5.16
2022-12-17T02:25:29.420Z,-5.13
2022-12-17T02:26:29.449Z,-5.21
2022-12-17T02:27:29.462Z,-5.21
2022-12-17T02:28:29.480Z,-5.25
2022-12-17T02:29:29.494Z,-5.23
2022-12-17T02:30:29.504Z,-5.25
2022-12-17T02:31:29.608Z,-5.31
2022-12-17T02:32:29.529Z,-5.30
2022-12-17T02:33:29.560Z,-5.32
2022-12-17T02:34:29.572Z,-5.32
2022-12-17T02:35:29.590Z,-5.31
2022-12-17T02:36:29.620Z,-5.28
2022-12-17T02:37:29.666Z,-5.28
2022-12-17T02:38:29.667Z,-5.31
2022-12-17T02:39:29.707Z,-5.34
2022-12-17T02:40:29.722Z,-5.39
2022-12-17T02:41:29.745Z,-5.46
2022-12-17T02:42:29.761Z,-5.46
2022-12-17T02:43:29.796Z,-5.46
2022-12-17T02:44:29.800Z,-5.41
2022-12-17T02:45:29.877Z,-5.38
2022-12-17T02:46:29.821Z,-5.41
2022-12-17T02:47:29.872Z,-5.41
2022-12-17T02:48:29.900Z,-5.41
2022-12-17T02:49:29.949Z,-5.39
2022-12-17T02:50:29.970Z,-5.45
2022-12-17T02:51:29.994Z,-5.41
2022-12-17T02:52:34.734Z,-5.39
2022-12-17T02:53:30.030Z,-5.39
2022-12-17T02:54:30.051Z,-5.43
2022-12-17T02:55:30.068Z,-5.41
2022-12-17T02:56:30.100Z,-5.41
2022-12-17T02:57:30.120Z,-5.39
2022-12-17T02:58:30.132Z,-5.39
2022-12-17T02:59:30.151Z,-5.38
2022-12-17T03:00:30.161Z,-5.43
2022-12-17T03:01:30.349Z,-5.43
2022-12-17T03:02:30.402Z,-5.38
2022-12-17T03:03:30.314Z,-5.39
2022-12-17T03:04:30.301Z,-5.45
2022-12-17T03:05:46.165Z,-5.45
2022-12-17T03:06:30.331Z,-5.43
2022-12-17T03:07:30.362Z,-5.49
2022-12-17T03:08:30.372Z,-5.52
2022-12-17T03:09:30.391Z,-5.53
2022-12-17T03:10:30.411Z,-5.58
2022-12-17T03:11:30.432Z,-5.60
2022-12-17T03:12:30.473Z,-5.59
2022-12-17T03:13:30.492Z,-5.58
2022-12-17T03:14:30.483Z,-5.59
2022-12-17T03:15:30.501Z,-5.63
2022-12-17T03:16:35.781Z,-5.60
2022-12-17T03:17:30.581Z,-5.70
2022-12-17T03:18:30.612Z,-5.66
2022-12-17T03:19:30.632Z,-5.63
2022-12-17T03:20:30.686Z,-5.67
2022-12-17T03:21:30.732Z,-5.60
2022-12-17T03:22:30.768Z,-5.66
2022-12-17T03:23:30.783Z,-5.64
2022-12-17T03:24:30.822Z,-5.64
2022-12-17T03:25:30.832Z,-5.67
2022-12-17T03:26:30.852Z,-5.63
2022-12-17T03:27:30.877Z,-5.67
2022-12-17T03:28:30.882Z,-5.68
2022-12-17T03:29:30.912Z,-5.74
2022-12-17T03:30:35.584Z,-5.84
2022-12-17T03:31:30.995Z,-5.89
2022-12-17T03:32:30.954Z,-5.92
2022-12-17T03:33:30.983Z,-6.00
2022-12-17T03:34:31.023Z,-6.05
2022-12-17T03:35:31.043Z,-6.09
2022-12-17T03:36:31.062Z,-6.06
2022-12-17T03:37:31.108Z,-6.06
2022-12-17T03:38:31.144Z,-6.02
2022-12-17T03:39:31.174Z,-6.00
2022-12-17T03:40:31.193Z,-6.02
2022-12-17T03:41:31.213Z,-6.05
2022-12-17T03:42:31.244Z,-6.07
2022-12-17T03:43:31.305Z,-6.07
2022-12-17T03:44:31.333Z,-6.06
2022-12-17T03:45:31.361Z,-6.06
2022-12-17T03:46:32.365Z,-6.10
2022-12-17T03:47:31.424Z,-6.18
2022-12-17T03:48:31.466Z,-6.18
2022-12-17T03:49:31.503Z,-6.26
2022-12-17T03:50:31.534Z,-6.30
2022-12-17T03:51:31.553Z,-6.30
2022-12-17T03:52:31.583Z,-6.30
2022-12-17T03:53:31.737Z,-6.30
2022-12-17T03:54:31.617Z,-6.24
2022-12-17T03:55:31.635Z,-6.26
2022-12-17T03:56:31.676Z,-6.26
2022-12-17T03:57:31.725Z,-6.23
2022-12-17T03:58:31.756Z,-6.21
2022-12-17T03:59:31.784Z,-6.23
2022-12-17T04:00:31.805Z,-6.27
2022-12-17T04:01:31.978Z,-6.28
2022-12-17T04:02:32.056Z,-6.33
2022-12-17T04:03:31.937Z,-6.34
2022-12-17T04:04:31.886Z,-6.36
2022-12-17T04:05:31.915Z,-6.31
2022-12-17T04:06:31.934Z,-6.31
2022-12-17T04:07:31.983Z,-6.31
2022-12-17T04:08:32.005Z,-6.27
2022-12-17T04:09:32.033Z,-6.33
2022-12-17T04:10:32.064Z,-6.34
2022-12-17T04:11:32.086Z,-6.39
2022-12-17T04:12:32.128Z,-6.41
2022-12-17T04:13:37.306Z,-6.41
2022-12-17T04:14:32.165Z,-6.42
2022-12-17T04:15:32.226Z,-6.42
2022-12-17T04:16:32.893Z,-6.39
2022-12-17T04:17:32.274Z,-6.38
2022-12-17T04:18:32.306Z,-6.33
2022-12-17T04:19:32.325Z,-6.30
2022-12-17T04:20:32.345Z,-6.28
2022-12-17T04:21:32.407Z,-6.31
2022-12-17T04:22:32.390Z,-6.27
2022-12-17T04:23:32.559Z,-6.33
2022-12-17T04:24:32.415Z,-6.33
2022-12-17T04:25:32.456Z,-6.38
2022-12-17T04:26:32.485Z,-6.41
2022-12-17T04:27:32.505Z,-6.34
2022-12-17T04:28:32.548Z,-6.28
2022-12-17T04:29:32.575Z,-6.23
2022-12-17T04:30:32.597Z,-6.20
2022-12-17T04:31:32.715Z,-6.20
2022-12-17T04:32:35.395Z,-6.21
2022-12-17T04:33:32.894Z,-6.18
2022-12-17T04:34:32.787Z,-6.21
2022-12-17T04:35:32.816Z,-6.23
2022-12-17T04:36:32.837Z,-6.20
2022-12-17T04:37:32.856Z,-6.24
2022-12-17T04:38:32.878Z,-6.18
2022-12-17T04:39:32.927Z,-6.18
2022-12-17T04:40:32.947Z,-6.16
2022-12-17T04:41:32.977Z,-6.16
2022-12-17T04:42:33.005Z,-6.12
2022-12-17T04:43:33.219Z,-6.07
2022-12-17T04:44:33.046Z,-6.10
2022-12-17T04:45:33.066Z,-6.12
2022-12-17T04:46:33.202Z,-6.10
2022-12-17T04:47:33.137Z,-6.13
2022-12-17T04:48:33.168Z,-6.23
2022-12-17T04:49:33.188Z,-6.24
2022-12-17T04:50:33.217Z,-6.21
2022-12-17T04:51:33.238Z,-6.21
2022-12-17T04:52:33.264Z,-6.26
2022-12-17T04:53:33.625Z,-6.27
2022-12-17T04:54:33.266Z,-6.26
2022-12-17T04:55:33.297Z,-6.34
2022-12-17T04:56:33.327Z,-6.39
2022-12-17T04:57:33.365Z,-6.34
2022-12-17T04:58:33.412Z,-6.46
2022-12-17T04:59:33.448Z,-6.45
2022-12-17T05:00:33.477Z,-6.39
2022-12-17T05:01:33.566Z,-6.36
2022-12-17T05:02:36.072Z,-6.36
2022-12-17T05:03:34.111Z,-6.39
2022-12-17T05:04:33.607Z,-6.39
2022-12-17T05:05:33.640Z,-6.44
2022-12-17T05:06:33.668Z,-6.41
2022-12-17T05:07:33.691Z,-6.36
2022-12-17T05:08:39.660Z,-6.33
2022-12-17T05:09:33.748Z,-6.26
2022-12-17T05:10:33.768Z,-6.26
2022-12-17T05:11:33.789Z,-6.27
2022-12-17T05:12:33.819Z,-6.27
2022-12-17T05:13:34.182Z,-6.30
2022-12-17T05:14:33.910Z,-6.33
2022-12-17T05:15:33.962Z,-6.33
2022-12-17T05:16:34.014Z,-6.33
2022-12-17T05:17:33.949Z,-6.34
2022-12-17T05:18:34.036Z,-6.28
2022-12-17T05:19:33.983Z,-6.31
2022-12-17T05:20:34.028Z,-6.36
2022-12-17T05:21:34.061Z,-6.41
2022-12-17T05:22:34.078Z,-6.39
2022-12-17T05:23:34.526Z,-6.41
2022-12-17T05:24:34.098Z,-6.42
2022-12-17T05:25:34.145Z,-6.38
2022-12-17T05:26:34.190Z,-6.36
2022-12-17T05:27:34.210Z,-6.39
2022-12-17T05:28:34.282Z,-6.39
2022-12-17T05:29:34.258Z,-6.42
2022-12-17T05:30:34.289Z,-6.49
2022-12-17T05:31:34.421Z,-6.49
2022-12-17T05:32:34.370Z,-6.45
2022-12-17T05:33:34.670Z,-6.46
2022-12-17T05:34:34.448Z,-6.42
2022-12-17T05:35:34.460Z,-6.44
2022-12-17T05:36:34.492Z,-6.42
2022-12-17T05:37:34.531Z,-6.41
2022-12-17T05:38:34.559Z,-6.38
2022-12-17T05:39:34.586Z,-6.41
2022-12-17T05:40:34.651Z,-6.41
2022-12-17T05:41:34.679Z,-6.48
2022-12-17T05:42:34.719Z,-6.54
2022-12-17T05:43:35.162Z,-6.54
2022-12-17T05:44:34.819Z,-6.52
2022-12-17T05:45:34.840Z,-6.51
2022-12-17T05:46:34.913Z,-6.51
2022-12-17T05:47:34.912Z,-6.48
2022-12-17T05:48:34.940Z,-6.45
2022-12-17T05:49:34.973Z,-6.46
2022-12-17T05:50:35.000Z,-6.49
2022-12-17T05:51:38.670Z,-6.46
2022-12-17T05:52:35.070Z,-6.48
2022-12-17T05:53:35.504Z,-6.49
2022-12-17T05:54:35.114Z,-6.49
2022-12-17T05:55:35.141Z,-6.49
2022-12-17T05:56:35.191Z,-6.46
2022-12-17T05:57:35.221Z,-6.51
2022-12-17T05:58:35.242Z,-6.52
2022-12-17T05:59:35.271Z,-6.51
2022-12-17T06:00:35.311Z,-6.52
2022-12-17T06:01:35.407Z,-6.51
2022-12-17T06:02:35.508Z,-6.46
2022-12-17T06:03:35.901Z,-6.46
2022-12-17T06:04:35.424Z,-6.44
2022-12-17T06:05:35.442Z,-6.41
2022-12-17T06:06:35.474Z,-6.42
2022-12-17T06:07:35.521Z,-6.41
2022-12-17T06:08:35.560Z,-6.45
2022-12-17T06:09:35.589Z,-6.45
2022-12-17T06:10:35.622Z,-6.45
2022-12-17T06:11:35.641Z,-6.48
2022-12-17T06:12:35.672Z,-6.51
2022-12-17T06:13:36.016Z,-6.51
2022-12-17T06:14:35.732Z,-6.51
2022-12-17T06:15:35.751Z,-6.52
2022-12-17T06:16:35.844Z,-6.56
2022-12-17T06:17:35.773Z,-6.58
2022-12-17T06:18:35.805Z,-6.56
2022-12-17T06:19:35.822Z,-6.58
2022-12-17T06:20:35.842Z,-6.61
2022-12-17T06:21:35.861Z,-6.63
2022-12-17T06:22:35.892Z,-6.63
2022-12-17T06:23:36.294Z,-6.61
2022-12-17T06:24:36.908Z,-6.66
2022-12-17T06:25:35.951Z,-6.68
2022-12-17T06:26:35.991Z,-6.64
2022-12-17T06:27:36.015Z,-6.64
2022-12-17T06:28:36.038Z,-6.63
2022-12-17T06:29:36.073Z,-6.63
2022-12-17T06:30:36.112Z,-6.67
2022-12-17T06:31:36.202Z,-6.68
2022-12-17T06:32:36.163Z,-6.67
2022-12-17T06:33:36.458Z,-6.66
2022-12-17T06:34:36.182Z,-6.51
2022-12-17T06:35:36.202Z,-6.42
2022-12-17T06:36:36.233Z,-6.36
2022-12-17T06:37:36.254Z,-6.34
2022-12-17T06:38:36.293Z,-6.27
2022-12-17T06:39:36.323Z,-6.28
2022-12-17T06:40:36.367Z,-6.34
2022-12-17T06:41:36.401Z,-6.39
2022-12-17T06:42:36.422Z,-6.39
2022-12-17T06:43:36.768Z,-6.41
2022-12-17T06:44:36.442Z,-6.36
2022-12-17T06:45:36.521Z,-6.31
2022-12-17T06:46:36.593Z,-6.31
2022-12-17T06:47:36.582Z,-6.27
2022-12-17T06:48:36.608Z,-6.26
2022-12-17T06:49:36.646Z,-6.21
2022-12-17T06:50:36.673Z,-6.20
2022-12-17T06:51:36.713Z,-6.18
2022-12-17T06:52:36.742Z,-6.18
2022-12-17T06:53:37.299Z,-6.16
2022-12-17T06:54:36.862Z,-6.15
2022-12-17T06:55:36.893Z,-6.18
2022-12-17T06:56:36.944Z,-6.15
2022-12-17T06:57:40.795Z,-6.13
2022-12-17T06:58:37.053Z,-6.12
2022-12-17T06:59:37.105Z,-6.09
2022-12-17T07:00:37.190Z,-6.07
2022-12-17T07:01:37.308Z,-6.05
2022-12-17T07:02:37.306Z,-6.06
2022-12-17T07:03:37.627Z,-6.21
2022-12-17T07:04:37.314Z,-6.31
2022-12-17T07:05:37.381Z,-6.44
2022-12-17T07:06:37.439Z,-6.63
2022-12-17T07:07:37.495Z,-6.67
2022-12-17T07:08:37.547Z,-6.85
2022-12-17T07:09:37.605Z,-6.84
2022-12-17T07:10:37.625Z,-6.82
2022-12-17T07:11:37.732Z,-6.79
2022-12-17T07:12:37.735Z,-6.76
2022-12-17T07:13:38.118Z,-6.78
2022-12-17T07:14:37.784Z,-6.73
2022-12-17T07:15:37.815Z,-6.68
2022-12-17T07:16:37.872Z,-6.64
2022-12-17T07:17:37.864Z,-6.66
2022-12-17T07:18:37.914Z,-6.63
2022-12-17T07:19:37.955Z,-6.66
2022-12-17T07:20:37.985Z,-6.64
2022-12-17T07:21:38.025Z,-6.66
2022-12-17T07:22:38.078Z,-6.64
2022-12-17T07:23:38.598Z,-6.60
2022-12-17T07:24:38.176Z,-6.56
2022-12-17T07:25:42.804Z,-6.48
2022-12-17T07:26:38.237Z,-6.41
2022-12-17T07:27:38.245Z,-6.34
2022-12-17T07:28:38.256Z,-6.23
2022-12-17T07:29:38.265Z,-6.15
2022-12-17T07:30:38.276Z,-6.12
2022-12-17T07:31:38.324Z,-6.12
2022-12-17T07:32:38.295Z,-6.20
2022-12-17T07:33:38.626Z,-6.18
2022-12-17T07:34:38.376Z,-6.21
2022-12-17T07:35:38.435Z,-6.23
2022-12-17T07:36:38.437Z,-6.27
2022-12-17T07:37:38.465Z,-6.26
2022-12-17T07:38:38.475Z,-6.26
2022-12-17T07:39:38.476Z,-6.31
2022-12-17T07:40:38.465Z,-6.26
2022-12-17T07:41:38.503Z,-6.23
2022-12-17T07:42:38.495Z,-6.20
2022-12-17T07:43:38.854Z,-6.12
2022-12-17T07:44:38.595Z,-6.07
2022-12-17T07:45:38.649Z,-6.03
2022-12-17T07:46:38.683Z,-5.97
2022-12-17T07:47:38.657Z,-5.97
2022-12-17T07:48:38.692Z,-5.97
2022-12-17T07:49:38.710Z,-5.99
2022-12-17T07:50:38.728Z,-5.95
2022-12-17T07:51:38.748Z,-6.02
2022-12-17T07:52:38.758Z,-6.02
2022-12-17T07:53:38.969Z,-6.02
2022-12-17T07:54:38.767Z,-6.07
2022-12-17T07:55:38.796Z,-6.07
2022-12-17T07:56:38.817Z,-6.09
2022-12-17T07:57:38.827Z,-6.16
2022-12-17T07:58:38.900Z,-6.21
2022-12-17T07:59:38.957Z,-6.26
2022-12-17T08:00:38.981Z,-6.13
2022-12-17T08:01:39.088Z,-6.07
2022-12-17T08:02:39.241Z,-6.16
2022-12-17T08:03:39.620Z,-6.28
2022-12-17T08:04:39.089Z,-6.27
2022-12-17T08:05:39.087Z,-6.27
2022-12-17T08:06:39.128Z,-6.27
2022-12-17T08:07:39.169Z,-6.39
2022-12-17T08:08:39.178Z,-6.38
2022-12-17T08:09:39.238Z,-6.44
2022-12-17T08:10:39.289Z,-6.48
2022-12-17T08:11:39.289Z,-6.63
2022-12-17T08:12:39.366Z,-6.66
2022-12-17T08:13:39.602Z,-6.67
2022-12-17T08:14:39.427Z,-6.70
2022-12-17T08:15:39.478Z,-6.66
2022-12-17T08:16:39.525Z,-6.61
2022-12-17T08:17:39.547Z,-6.60
2022-12-17T08:18:39.570Z,-6.56
2022-12-17T08:19:39.589Z,-6.61
2022-12-17T08:20:39.638Z,-6.51
2022-12-17T08:21:39.658Z,-6.36
2022-12-17T08:22:39.718Z,-6.31
2022-12-17T08:23:39.913Z,-6.13
2022-12-17T08:24:39.839Z,-6.13
2022-12-17T08:25:39.870Z,-6.09
2022-12-17T08:26:44.284Z,-6.05
2022-12-17T08:27:39.919Z,-5.94
2022-12-17T08:28:55.425Z,-5.85
2022-12-17T08:29:39.992Z,-5.74
2022-12-17T08:30:40.161Z,-5.73
2022-12-17T08:31:40.090Z,-5.74
2022-12-17T08:32:40.158Z,-5.70
2022-12-17T08:33:40.241Z,-5.66
2022-12-17T08:34:40.269Z,-5.63
2022-12-17T08:35:40.299Z,-5.60
2022-12-17T08:39:32.324Z,-5.63
2022-12-17T08:40:32.415Z,-5.55
2022-12-17T08:41:32.495Z,-5.46
2022-12-17T08:42:32.456Z,-5.43
2022-12-17T08:43:32.495Z,-5.37
2022-12-17T08:44:32.484Z,-5.35
2022-12-17T08:45:32.699Z,-5.32
2022-12-17T08:46:32.634Z,-5.35
2022-12-17T08:47:32.565Z,-5.35
2022-12-17T08:48:32.636Z,-5.32
2022-12-17T08:49:32.697Z,-5.25
2022-12-17T08:50:32.745Z,-5.21
2022-12-17T08:51:32.795Z,-5.21
2022-12-17T08:52:32.806Z,-5.21
2022-12-17T08:53:35.098Z,-5.19
2022-12-17T08:54:32.855Z,-5.19
2022-12-17T08:55:32.925Z,-5.17
2022-12-17T08:56:32.927Z,-5.19
2022-12-17T08:57:32.999Z,-5.21
2022-12-17T08:58:33.046Z,-5.21
2022-12-17T08:59:33.037Z,-5.16
2022-12-17T09:00:33.106Z,-5.19
2022-12-17T09:01:33.352Z,-5.21
2022-12-17T09:02:33.369Z,-5.17
2022-12-17T09:03:33.308Z,-5.12
2022-12-17T09:04:33.186Z,-5.06
2022-12-17T09:05:33.227Z,-4.98
2022-12-17T09:06:38.714Z,-4.94
2022-12-17T09:07:33.295Z,-4.94
2022-12-17T09:08:33.319Z,-4.94
2022-12-17T09:09:33.382Z,-4.97
2022-12-17T09:10:33.418Z,-4.94
2022-12-17T09:11:33.474Z,-4.92
2022-12-17T09:12:33.487Z,-4.92
2022-12-17T09:13:33.874Z,-4.94
2022-12-17T09:14:33.576Z,-4.90
2022-12-17T09:15:33.627Z,-4.79
2022-12-17T09:16:33.718Z,-4.73
2022-12-17T09:17:33.738Z,-4.70
2022-12-17T09:18:33.717Z,-4.67
2022-12-17T09:19:33.807Z,-4.69
2022-12-17T09:20:33.797Z,-4.70
2022-12-17T09:21:33.801Z,-4.63
2022-12-17T09:22:33.778Z,-4.63
2022-12-17T09:23:33.909Z,-4.56
2022-12-17T09:24:33.778Z,-4.47
2022-12-17T09:25:33.808Z,-4.47
2022-12-17T09:26:33.838Z,-4.51
2022-12-17T09:27:33.861Z,-4.51
2022-12-17T09:28:33.870Z,-4.58
2022-12-17T09:29:33.878Z,-4.63
2022-12-17T09:30:33.937Z,-4.71
2022-12-17T09:31:37.544Z,-4.65
2022-12-17T09:32:33.969Z,-4.63
2022-12-17T09:33:34.367Z,-4.53
2022-12-17T09:34:34.032Z,-4.52
2022-12-17T09:35:34.100Z,-4.55
2022-12-17T09:36:34.108Z,-4.53
2022-12-17T09:37:34.087Z,-4.55
2022-12-17T09:38:34.161Z,-4.47
2022-12-17T09:39:34.159Z,-4.47
2022-12-17T09:40:34.151Z,-4.40
2022-12-17T09:41:34.210Z,-4.27
2022-12-17T09:42:34.272Z,-4.30
2022-12-17T09:43:34.698Z,-4.30
2022-12-17T09:44:34.380Z,-4.44
2022-12-17T09:45:34.430Z,-4.52
2022-12-17T09:46:34.560Z,-4.55
2022-12-17T09:47:34.468Z,-4.58
2022-12-17T09:48:34.508Z,-4.53
2022-12-17T09:49:34.559Z,-4.42
2022-12-17T09:50:34.620Z,-4.37
2022-12-17T09:51:34.670Z,-4.24
2022-12-17T09:52:34.725Z,-4.08
2022-12-17T09:53:35.131Z,-4.13
2022-12-17T09:54:34.749Z,-4.13
2022-12-17T09:55:34.801Z,-4.08
2022-12-17T09:56:34.841Z,-4.14
2022-12-17T09:57:34.890Z,-4.20
2022-12-17T09:58:34.960Z,-4.24
2022-12-17T09:59:35.031Z,-4.24
2022-12-17T10:00:35.080Z,-4.22
2022-12-17T10:01:35.308Z,-4.17
2022-12-17T10:02:35.306Z,-4.16
2022-12-17T10:03:35.719Z,-4.14
2022-12-17T10:04:35.142Z,-4.08
2022-12-17T10:05:35.169Z,-4.12
2022-12-17T10:06:35.221Z,-3.98
2022-12-17T10:07:35.281Z,-3.87
2022-12-17T10:08:35.321Z,-3.71
2022-12-17T10:09:35.359Z,-3.58
2022-12-17T10:10:35.436Z,-3.51
2022-12-17T10:11:35.506Z,-3.53
2022-12-17T10:12:35.559Z,-3.61
2022-12-17T10:13:36.054Z,-3.61
2022-12-17T10:14:35.622Z,-3.58
2022-12-17T10:15:35.742Z,-3.53
2022-12-17T10:16:35.712Z,-3.50
2022-12-17T10:17:35.744Z,-3.56
2022-12-17T10:18:35.810Z,-3.46
2022-12-17T10:19:35.862Z,-3.50
2022-12-17T10:20:35.895Z,-3.43
2022-12-17T10:21:35.922Z,-3.44
2022-12-17T10:22:38.973Z,-3.37
2022-12-17T10:23:36.240Z,-3.29
2022-12-17T10:24:35.958Z,-3.25
2022-12-17T10:25:35.994Z,-3.14
2022-12-17T10:26:36.112Z,-3.12
2022-12-17T10:27:36.073Z,-3.08
2022-12-17T10:28:36.222Z,-2.90
2022-12-17T10:29:37.996Z,-2.87
2022-12-17T10:30:36.253Z,-2.81
2022-12-17T10:31:36.285Z,-2.80
2022-12-17T10:32:38.164Z,-2.73
2022-12-17T10:33:38.826Z,-2.62
2022-12-17T10:34:36.383Z,-2.58
2022-12-17T10:35:36.449Z,-2.51
2022-12-17T10:36:36.424Z,-2.54
2022-12-17T10:37:36.494Z,-2.54
2022-12-17T10:38:36.523Z,-2.50
2022-12-17T10:39:36.561Z,-2.54
2022-12-17T10:40:36.597Z,-2.54
2022-12-17T10:41:36.625Z,-2.28
2022-12-17T10:42:36.666Z,-1.82
2022-12-17T10:43:37.084Z,-1.60
2022-12-17T10:44:36.733Z,-1.68
2022-12-17T10:45:36.824Z,-1.99
2022-12-17T10:46:36.884Z,-2.00
2022-12-17T10:47:36.803Z,-2.08
2022-12-17T10:48:36.855Z,-2.15
2022-12-17T10:49:36.906Z,-2.04
2022-12-17T10:50:36.905Z,-1.96
2022-12-17T10:51:36.885Z,-1.89
2022-12-17T10:52:36.936Z,-1.76
2022-12-17T10:53:37.339Z,-1.48
2022-12-17T10:54:37.000Z,-0.82
2022-12-17T10:55:37.027Z,-0.13
2022-12-17T10:56:37.075Z,0.47
2022-12-17T10:57:37.108Z,1.12
2022-12-17T10:58:37.096Z,1.98
2022-12-17T10:59:37.175Z,2.47
2022-12-17T11:00:37.239Z,2.88
2022-12-17T11:01:37.339Z,2.88
2022-12-17T11:02:37.439Z,3.09
2022-12-17T11:03:37.751Z,3.00
2022-12-17T11:04:37.325Z,3.05
2022-12-17T11:05:37.338Z,3.48
2022-12-17T11:06:41.997Z,3.89
2022-12-17T11:07:37.348Z,4.28
2022-12-17T11:08:37.756Z,4.56
2022-12-17T11:09:37.436Z,4.57
2022-12-17T11:10:37.478Z,4.68
2022-12-17T11:11:37.546Z,4.43
2022-12-17T11:12:37.588Z,4.38
2022-12-17T11:13:37.904Z,4.22
2022-12-17T11:14:37.638Z,4.28
2022-12-17T11:15:37.671Z,4.34
2022-12-17T11:16:37.718Z,4.53
2022-12-17T11:17:37.727Z,4.36
2022-12-17T11:18:37.780Z,4.14
2022-12-17T11:19:38.008Z,4.21
2022-12-17T11:20:37.879Z,3.84
2022-12-17T11:21:37.890Z,3.71
2022-12-17T11:22:37.899Z,3.82
2022-12-17T11:23:38.261Z,3.96
2022-12-17T11:24:37.918Z,4.03
2022-12-17T11:25:37.930Z,3.88
2022-12-17T11:26:37.932Z,4.30
2022-12-17T11:27:37.940Z,4.63
2022-12-17T11:28:37.963Z,4.83
2022-12-17T11:29:38.020Z,4.10
2022-12-17T11:30:38.080Z,3.88
2022-12-17T11:31:38.220Z,4.04
2022-12-17T11:32:38.130Z,4.25
2022-12-17T11:33:38.489Z,4.43
2022-12-17T11:34:38.180Z,4.78
2022-12-17T11:35:38.222Z,4.95
2022-12-17T11:36:39.281Z,4.79
2022-12-17T11:37:38.221Z,4.32
2022-12-17T11:38:38.470Z,4.36
2022-12-17T11:39:38.327Z,4.28
2022-12-17T11:40:38.396Z,4.00
2022-12-17T11:41:39.424Z,4.07
2022-12-17T11:42:38.438Z,4.38
2022-12-17T11:43:38.618Z,4.39
2022-12-17T11:44:39.343Z,4.57
2022-12-17T11:45:39.311Z,4.25
2022-12-17T11:46:38.615Z,4.06
2022-12-17T11:47:38.754Z,3.86
2022-12-17T11:48:39.219Z,4.06
2022-12-17T11:49:38.666Z,4.06
2022-12-17T11:50:38.779Z,4.40
2022-12-17T11:51:38.615Z,4.16
2022-12-17T11:52:38.743Z,3.96
2022-12-17T11:53:38.737Z,4.09
2022-12-17T11:54:38.840Z,4.30
2022-12-17T11:55:38.679Z,4.61
2022-12-17T11:56:38.692Z,4.66
2022-12-17T11:57:38.716Z,4.49
2022-12-17T11:58:39.167Z,4.40
2022-12-17T11:59:38.809Z,4.56
2022-12-17T12:00:38.877Z,4.60
2022-12-17T12:01:38.940Z,4.48
2022-12-17T12:02:38.889Z,4.79
2022-12-17T12:03:38.994Z,4.87
2022-12-17T12:04:38.907Z,4.98
2022-12-17T12:05:38.975Z,4.71
2022-12-17T12:06:39.027Z,4.32
2022-12-17T12:07:39.080Z,4.22
2022-12-17T12:08:39.492Z,3.99
2022-12-17T12:09:39.129Z,3.96
2022-12-17T12:10:39.147Z,4.18
2022-12-17T12:11:39.160Z,4.42
2022-12-17T12:12:39.183Z,4.39
2022-12-17T12:13:39.207Z,4.34
2022-12-17T12:14:39.249Z,4.28
2022-12-17T12:15:39.298Z,4.24
2022-12-17T12:16:43.557Z,4.20
2022-12-17T12:17:40.089Z,4.16
2022-12-17T12:18:40.440Z,4.30
2022-12-17T12:19:39.390Z,4.45
2022-12-17T12:20:39.432Z,4.57
2022-12-17T12:21:39.480Z,4.53
2022-12-17T12:22:39.499Z,4.61
2022-12-17T12:23:40.381Z,4.52
2022-12-17T12:24:39.520Z,4.48
2022-12-17T12:25:39.528Z,4.21
2022-12-17T12:26:39.572Z,4.42
2022-12-17T12:27:42.767Z,4.02
2022-12-17T12:28:42.263Z,4.03
2022-12-17T12:29:39.680Z,4.02
2022-12-17T12:30:54.412Z,4.04
2022-12-17T12:31:39.792Z,3.95
2022-12-17T12:32:39.815Z,4.02
2022-12-17T12:33:39.751Z,3.81
2022-12-17T12:34:39.772Z,4.00
2022-12-17T12:35:41.315Z,4.27
2022-12-17T12:36:39.816Z,4.68
2022-12-17T12:37:39.844Z,4.95
2022-12-17T12:38:45.640Z,4.66
2022-12-17T12:39:40.785Z,4.89
2022-12-17T12:40:40.121Z,4.87
2022-12-17T12:41:40.104Z,5.08
2022-12-17T12:42:40.154Z,5.16
2022-12-17T12:43:40.092Z,5.28
2022-12-17T12:44:40.142Z,5.04
2022-12-17T12:45:40.158Z,4.71
2022-12-17T12:46:40.129Z,4.38
2022-12-17T12:47:40.176Z,4.18
2022-12-17T12:48:40.274Z,3.89
2022-12-17T12:49:40.264Z,4.12
2022-12-17T12:50:40.275Z,4.09
2022-12-17T12:51:40.276Z,4.27
2022-12-17T12:52:40.318Z,4.66
2022-12-17T12:53:40.518Z,4.67
2022-12-17T12:54:40.536Z,4.68
2022-12-17T12:55:40.877Z,4.50
2022-12-17T12:56:41.011Z,4.21
2022-12-17T12:57:40.510Z,4.32
2022-12-17T12:58:40.531Z,4.57
2022-12-17T12:59:40.516Z,4.53